sensor_id;sensor_type;location;lat;lon;timestamp;temperature;humidity
14995;DHT22;7593;49.006;8.372;2023-07-13T00:00:09;19.60;99.90
14995;DHT22;7593;49.006;8.372;2023-07-13T00:02:36;19.50;99.90
14995;DHT22;7593;49.006;8.372;2023-07-13T00:05:04;19.50;99.90
14995;DHT22;7593;49.006;8.372;2023-07-13T00:07:31;19.40;99.90
14995;DHT22;7593;49.006;8.372;2023-07-13T00:09:58;19.30;99.90
14995;DHT22;7593;49.006;8.372;2023-07-13T00:12:28;19.30;99.90
14995;DHT22;7593;49.006;8.372;2023-07-13T00:14:56;19.20;99.90
14995;DHT22;7593;49.006;8.372;2023-07-13T00:17:23;19.10;99.90
14995;DHT22;7593;49.006;8.372;2023-07-13T00:19:50;19.10;99.90
14995;DHT22;7593;49.006;8.372;2023-07-13T00:22:18;19.10;99.90
14995;DHT22;7593;49.006;8.372;2023-07-13T00:24:45;19.00;99.90
14995;DHT22;7593;49.006;8.372;2023-07-13T00:27:12;19.00;99.90
14995;DHT22;7593;49.006;8.372;2023-07-13T00:29:39;18.90;99.90
14995;DHT22;7593;49.006;8.372;2023-07-13T00:32:07;18.80;99.90
14995;DHT22;7593;49.006;8.372;2023-07-13T00:34:35;18.80;99.90
14995;DHT22;7593;49.006;8.372;2023-07-13T00:37:01;18.80;99.90
14995;DHT22;7593;49.006;8.372;2023-07-13T00:39:29;18.80;99.90
14995;DHT22;7593;49.006;8.372;2023-07-13T00:41:56;18.80;99.90
14995;DHT22;7593;49.006;8.372;2023-07-13T00:44:23;18.80;99.90
14995;DHT22;7593;49.006;8.372;2023-07-13T00:46:50;18.70;99.90
14995;DHT22;7593;49.006;8.372;2023-07-13T00:49:20;18.70;99.90
14995;DHT22;7593;49.006;8.372;2023-07-13T00:51:49;18.70;99.90
14995;DHT22;7593;49.006;8.372;2023-07-13T00:54:20;18.70;99.90
14995;DHT22;7593;49.006;8.372;2023-07-13T00:56:50;18.70;99.90
14995;DHT22;7593;49.006;8.372;2023-07-13T00:59:18;18.70;99.90
14995;DHT22;7593;49.006;8.372;2023-07-13T01:01:46;18.70;99.90
14995;DHT22;7593;49.006;8.372;2023-07-13T01:04:14;18.70;99.90
14995;DHT22;7593;49.006;8.372;2023-07-13T01:06:41;18.70;99.90
14995;DHT22;7593;49.006;8.372;2023-07-13T01:09:10;18.60;99.90
14995;DHT22;7593;49.006;8.372;2023-07-13T01:11:37;18.60;99.90
14995;DHT22;7593;49.006;8.372;2023-07-13T01:14:05;18.50;99.90
14995;DHT22;7593;49.006;8.372;2023-07-13T01:16:35;18.50;99.90
14995;DHT22;7593;49.006;8.372;2023-07-13T01:19:05;18.50;99.90
14995;DHT22;7593;49.006;8.372;2023-07-13T01:21:35;18.50;99.90
14995;DHT22;7593;49.006;8.372;2023-07-13T01:24:03;18.40;99.90
14995;DHT22;7593;49.006;8.372;2023-07-13T01:26:30;18.40;99.90
14995;DHT22;7593;49.006;8.372;2023-07-13T01:28:57;18.40;99.90
14995;DHT22;7593;49.006;8.372;2023-07-13T01:31:24;18.40;99.90
14995;DHT22;7593;49.006;8.372;2023-07-13T01:33:51;18.40;99.90
14995;DHT22;7593;49.006;8.372;2023-07-13T01:36:18;18.50;99.90
14995;DHT22;7593;49.006;8.372;2023-07-13T01:38:48;18.50;99.90
14995;DHT22;7593;49.006;8.372;2023-07-13T01:41:14;18.50;99.90
14995;DHT22;7593;49.006;8.372;2023-07-13T01:43:41;18.50;99.90
14995;DHT22;7593;49.006;8.372;2023-07-13T01:46:08;18.50;99.90
14995;DHT22;7593;49.006;8.372;2023-07-13T01:48:35;18.50;99.90
14995;DHT22;7593;49.006;8.372;2023-07-13T01:51:02;18.60;99.90
14995;DHT22;7593;49.006;8.372;2023-07-13T01:53:28;18.60;99.90
14995;DHT22;7593;49.006;8.372;2023-07-13T01:55:56;18.60;99.90
14995;DHT22;7593;49.006;8.372;2023-07-13T01:58:23;18.60;99.90
14995;DHT22;7593;49.006;8.372;2023-07-13T02:00:51;18.60;99.90
14995;DHT22;7593;49.006;8.372;2023-07-13T02:03:18;18.60;99.90
14995;DHT22;7593;49.006;8.372;2023-07-13T02:05:45;18.60;99.90
14995;DHT22;7593;49.006;8.372;2023-07-13T02:08:12;18.60;99.90
14995;DHT22;7593;49.006;8.372;2023-07-13T02:10:39;18.60;99.90
14995;DHT22;7593;49.006;8.372;2023-07-13T02:13:07;18.60;99.90
14995;DHT22;7593;49.006;8.372;2023-07-13T02:15:34;18.60;99.90
14995;DHT22;7593;49.006;8.372;2023-07-13T02:18:04;18.60;99.90
14995;DHT22;7593;49.006;8.372;2023-07-13T02:20:31;18.50;99.90
14995;DHT22;7593;49.006;8.372;2023-07-13T02:22:57;18.50;99.90
14995;DHT22;7593;49.006;8.372;2023-07-13T02:25:24;18.40;99.90
14995;DHT22;7593;49.006;8.372;2023-07-13T02:27:52;18.30;99.90
14995;DHT22;7593;49.006;8.372;2023-07-13T02:30:21;18.30;99.90
14995;DHT22;7593;49.006;8.372;2023-07-13T02:32:50;18.20;99.90
14995;DHT22;7593;49.006;8.372;2023-07-13T02:35:16;18.20;99.90
14995;DHT22;7593;49.006;8.372;2023-07-13T02:37:43;18.20;99.90
14995;DHT22;7593;49.006;8.372;2023-07-13T02:40:10;18.20;99.90
14995;DHT22;7593;49.006;8.372;2023-07-13T02:42:37;18.20;99.90
14995;DHT22;7593;49.006;8.372;2023-07-13T02:45:05;18.10;99.90
14995;DHT22;7593;49.006;8.372;2023-07-13T02:47:33;18.00;99.90
14995;DHT22;7593;49.006;8.372;2023-07-13T02:50:00;18.00;99.90
14995;DHT22;7593;49.006;8.372;2023-07-13T02:52:27;18.00;99.90
14995;DHT22;7593;49.006;8.372;2023-07-13T02:54:54;17.90;99.90
14995;DHT22;7593;49.006;8.372;2023-07-13T02:57:21;17.90;99.90
14995;DHT22;7593;49.006;8.372;2023-07-13T02:59:47;17.90;99.90
14995;DHT22;7593;49.006;8.372;2023-07-13T03:02:15;17.80;99.90
14995;DHT22;7593;49.006;8.372;2023-07-13T03:04:43;17.80;99.90
14995;DHT22;7593;49.006;8.372;2023-07-13T03:07:10;17.80;99.90
14995;DHT22;7593;49.006;8.372;2023-07-13T03:09:37;17.80;99.90
14995;DHT22;7593;49.006;8.372;2023-07-13T03:12:04;17.80;99.90
14995;DHT22;7593;49.006;8.372;2023-07-13T03:14:31;17.80;99.90
14995;DHT22;7593;49.006;8.372;2023-07-13T03:16:58;17.90;99.90
14995;DHT22;7593;49.006;8.372;2023-07-13T03:19:24;17.90;99.90
14995;DHT22;7593;49.006;8.372;2023-07-13T03:21:53;17.90;99.90
14995;DHT22;7593;49.006;8.372;2023-07-13T03:24:19;17.90;99.90
14995;DHT22;7593;49.006;8.372;2023-07-13T03:26:48;18.00;99.90
14995;DHT22;7593;49.006;8.372;2023-07-13T03:29:15;18.00;99.90
14995;DHT22;7593;49.006;8.372;2023-07-13T03:31:42;18.00;99.90
14995;DHT22;7593;49.006;8.372;2023-07-13T03:34:09;18.00;99.90
14995;DHT22;7593;49.006;8.372;2023-07-13T03:36:36;17.90;99.90
14995;DHT22;7593;49.006;8.372;2023-07-13T03:39:04;17.90;99.90
14995;DHT22;7593;49.006;8.372;2023-07-13T03:41:33;17.80;99.90
14995;DHT22;7593;49.006;8.372;2023-07-13T03:44:01;17.70;99.90
14995;DHT22;7593;49.006;8.372;2023-07-13T03:46:28;17.70;99.90
14995;DHT22;7593;49.006;8.372;2023-07-13T03:48:54;17.60;99.90
14995;DHT22;7593;49.006;8.372;2023-07-13T03:51:21;17.60;99.90
14995;DHT22;7593;49.006;8.372;2023-07-13T03:53:48;17.60;99.90
14995;DHT22;7593;49.006;8.372;2023-07-13T03:56:17;17.50;99.90
14995;DHT22;7593;49.006;8.372;2023-07-13T03:58:45;17.50;99.90
14995;DHT22;7593;49.006;8.372;2023-07-13T04:01:13;17.50;99.90
14995;DHT22;7593;49.006;8.372;2023-07-13T04:03:41;17.50;99.90
14995;DHT22;7593;49.006;8.372;2023-07-13T04:06:20;17.40;99.90
14995;DHT22;7593;49.006;8.372;2023-07-13T04:08:50;17.40;99.90
14995;DHT22;7593;49.006;8.372;2023-07-13T04:11:19;17.40;99.90
14995;DHT22;7593;49.006;8.372;2023-07-13T04:13:47;17.40;99.90
14995;DHT22;7593;49.006;8.372;2023-07-13T04:16:14;17.40;99.90
14995;DHT22;7593;49.006;8.372;2023-07-13T04:18:41;17.40;99.90
14995;DHT22;7593;49.006;8.372;2023-07-13T04:21:09;17.40;99.90
14995;DHT22;7593;49.006;8.372;2023-07-13T04:23:36;17.30;99.90
14995;DHT22;7593;49.006;8.372;2023-07-13T04:26:03;17.40;99.90
14995;DHT22;7593;49.006;8.372;2023-07-13T04:28:31;17.40;99.90
14995;DHT22;7593;49.006;8.372;2023-07-13T04:30:58;17.50;99.90
14995;DHT22;7593;49.006;8.372;2023-07-13T04:33:26;17.50;99.90
14995;DHT22;7593;49.006;8.372;2023-07-13T04:35:54;17.60;99.90
14995;DHT22;7593;49.006;8.372;2023-07-13T04:38:22;17.60;99.90
14995;DHT22;7593;49.006;8.372;2023-07-13T04:40:50;17.60;99.90
14995;DHT22;7593;49.006;8.372;2023-07-13T04:43:17;17.70;99.90
14995;DHT22;7593;49.006;8.372;2023-07-13T04:45:46;17.70;99.90
14995;DHT22;7593;49.006;8.372;2023-07-13T04:48:12;17.80;99.90
14995;DHT22;7593;49.006;8.372;2023-07-13T04:50:39;17.90;99.90
14995;DHT22;7593;49.006;8.372;2023-07-13T04:53:06;17.90;99.90
14995;DHT22;7593;49.006;8.372;2023-07-13T04:55:33;18.00;99.90
14995;DHT22;7593;49.006;8.372;2023-07-13T04:58:00;18.00;99.90
14995;DHT22;7593;49.006;8.372;2023-07-13T05:00:28;18.00;99.90
14995;DHT22;7593;49.006;8.372;2023-07-13T05:02:58;18.10;99.90
14995;DHT22;7593;49.006;8.372;2023-07-13T05:05:26;18.20;99.90
14995;DHT22;7593;49.006;8.372;2023-07-13T05:07:53;18.20;99.90
14995;DHT22;7593;49.006;8.372;2023-07-13T05:10:20;18.20;99.90
14995;DHT22;7593;49.006;8.372;2023-07-13T05:12:47;18.00;99.90
14995;DHT22;7593;49.006;8.372;2023-07-13T05:15:14;17.90;99.90
14995;DHT22;7593;49.006;8.372;2023-07-13T05:17:41;17.90;99.90
14995;DHT22;7593;49.006;8.372;2023-07-13T05:20:10;17.80;99.90
14995;DHT22;7593;49.006;8.372;2023-07-13T05:22:36;17.70;99.90
14995;DHT22;7593;49.006;8.372;2023-07-13T05:25:05;17.70;99.90
14995;DHT22;7593;49.006;8.372;2023-07-13T05:27:32;17.70;99.90
14995;DHT22;7593;49.006;8.372;2023-07-13T05:29:59;17.80;99.90
14995;DHT22;7593;49.006;8.372;2023-07-13T05:32:26;17.90;99.90
14995;DHT22;7593;49.006;8.372;2023-07-13T05:34:52;17.90;99.90
14995;DHT22;7593;49.006;8.372;2023-07-13T05:37:20;17.90;99.90
14995;DHT22;7593;49.006;8.372;2023-07-13T05:39:47;18.00;99.90
14995;DHT22;7593;49.006;8.372;2023-07-13T05:42:14;18.00;99.90
14995;DHT22;7593;49.006;8.372;2023-07-13T05:44:41;18.10;99.90
14995;DHT22;7593;49.006;8.372;2023-07-13T05:47:08;18.10;99.90
14995;DHT22;7593;49.006;8.372;2023-07-13T05:49:34;18.20;99.90
14995;DHT22;7593;49.006;8.372;2023-07-13T05:52:01;18.30;99.90
14995;DHT22;7593;49.006;8.372;2023-07-13T05:54:29;18.30;99.90
14995;DHT22;7593;49.006;8.372;2023-07-13T05:56:57;18.40;99.90
14995;DHT22;7593;49.006;8.372;2023-07-13T05:59:24;18.50;99.90
14995;DHT22;7593;49.006;8.372;2023-07-13T06:01:51;18.60;99.90
14995;DHT22;7593;49.006;8.372;2023-07-13T06:04:18;18.70;99.90
14995;DHT22;7593;49.006;8.372;2023-07-13T06:06:45;18.80;99.90
14995;DHT22;7593;49.006;8.372;2023-07-13T06:09:12;18.80;99.90
14995;DHT22;7593;49.006;8.372;2023-07-13T06:11:42;18.80;99.90
14995;DHT22;7593;49.006;8.372;2023-07-13T06:14:09;18.80;99.90
14995;DHT22;7593;49.006;8.372;2023-07-13T06:16:36;18.80;99.90
14995;DHT22;7593;49.006;8.372;2023-07-13T06:19:02;18.90;99.90
14995;DHT22;7593;49.006;8.372;2023-07-13T06:21:29;19.00;99.90
14995;DHT22;7593;49.006;8.372;2023-07-13T06:23:56;19.10;99.90
14995;DHT22;7593;49.006;8.372;2023-07-13T06:26:23;19.20;99.90
14995;DHT22;7593;49.006;8.372;2023-07-13T06:28:51;19.20;99.90
14995;DHT22;7593;49.006;8.372;2023-07-13T06:31:18;19.30;99.90
14995;DHT22;7593;49.006;8.372;2023-07-13T06:33:44;19.30;99.90
14995;DHT22;7593;49.006;8.372;2023-07-13T06:36:12;19.50;99.90
14995;DHT22;7593;49.006;8.372;2023-07-13T06:38:38;19.80;99.90
14995;DHT22;7593;49.006;8.372;2023-07-13T06:41:06;20.10;99.90
14995;DHT22;7593;49.006;8.372;2023-07-13T06:43:33;20.30;99.90
14995;DHT22;7593;49.006;8.372;2023-07-13T06:46:01;20.60;99.90
14995;DHT22;7593;49.006;8.372;2023-07-13T06:48:28;20.90;99.90
14995;DHT22;7593;49.006;8.372;2023-07-13T06:50:55;21.20;99.90
14995;DHT22;7593;49.006;8.372;2023-07-13T06:53:22;21.50;99.90
14995;DHT22;7593;49.006;8.372;2023-07-13T06:55:49;21.60;99.90
14995;DHT22;7593;49.006;8.372;2023-07-13T06:58:17;21.90;99.90
14995;DHT22;7593;49.006;8.372;2023-07-13T07:00:45;22.10;99.90
14995;DHT22;7593;49.006;8.372;2023-07-13T07:03:15;22.20;99.90
14995;DHT22;7593;49.006;8.372;2023-07-13T07:05:42;22.30;99.90
14995;DHT22;7593;49.006;8.372;2023-07-13T07:08:08;22.40;99.90
14995;DHT22;7593;49.006;8.372;2023-07-13T07:10:35;22.40;99.90
14995;DHT22;7593;49.006;8.372;2023-07-13T07:13:03;22.40;99.90
14995;DHT22;7593;49.006;8.372;2023-07-13T07:15:30;22.60;99.90
14995;DHT22;7593;49.006;8.372;2023-07-13T07:17:57;22.60;99.90
14995;DHT22;7593;49.006;8.372;2023-07-13T07:20:25;22.70;99.90
14995;DHT22;7593;49.006;8.372;2023-07-13T07:22:52;22.90;99.90
14995;DHT22;7593;49.006;8.372;2023-07-13T07:25:19;23.20;99.90
14995;DHT22;7593;49.006;8.372;2023-07-13T07:27:46;23.40;99.90
14995;DHT22;7593;49.006;8.372;2023-07-13T07:30:13;23.50;99.90
14995;DHT22;7593;49.006;8.372;2023-07-13T07:32:40;23.70;99.90
14995;DHT22;7593;49.006;8.372;2023-07-13T07:35:08;24.00;99.90
14995;DHT22;7593;49.006;8.372;2023-07-13T07:37:42;24.10;99.90
14995;DHT22;7593;49.006;8.372;2023-07-13T07:40:09;24.20;99.90
14995;DHT22;7593;49.006;8.372;2023-07-13T07:42:36;24.30;99.80
14995;DHT22;7593;49.006;8.372;2023-07-13T07:45:03;24.40;99.80
14995;DHT22;7593;49.006;8.372;2023-07-13T07:47:30;24.70;99.70
14995;DHT22;7593;49.006;8.372;2023-07-13T07:49:57;25.10;98.70
14995;DHT22;7593;49.006;8.372;2023-07-13T07:52:24;25.50;98.20
14995;DHT22;7593;49.006;8.372;2023-07-13T07:54:52;25.80;97.40
14995;DHT22;7593;49.006;8.372;2023-07-13T07:57:18;25.70;96.50
14995;DHT22;7593;49.006;8.372;2023-07-13T07:59:45;25.80;96.20
14995;DHT22;7593;49.006;8.372;2023-07-13T08:02:13;26.10;96.30
14995;DHT22;7593;49.006;8.372;2023-07-13T08:04:40;26.00;96.20
14995;DHT22;7593;49.006;8.372;2023-07-13T08:07:07;25.90;96.00
14995;DHT22;7593;49.006;8.372;2023-07-13T08:09:34;25.90;95.40
14995;DHT22;7593;49.006;8.372;2023-07-13T08:12:03;25.60;94.70
14995;DHT22;7593;49.006;8.372;2023-07-13T08:14:35;25.70;94.70
14995;DHT22;7593;49.006;8.372;2023-07-13T08:17:04;25.60;93.10
14995;DHT22;7593;49.006;8.372;2023-07-13T08:19:31;25.50;93.20
14995;DHT22;7593;49.006;8.372;2023-07-13T08:21:57;25.50;91.80
14995;DHT22;7593;49.006;8.372;2023-07-13T08:24:24;25.70;91.80
14995;DHT22;7593;49.006;8.372;2023-07-13T08:26:51;25.70;91.40
14995;DHT22;7593;49.006;8.372;2023-07-13T08:29:20;25.90;91.50
14995;DHT22;7593;49.006;8.372;2023-07-13T08:31:47;26.20;90.40
14995;DHT22;7593;49.006;8.372;2023-07-13T08:34:14;26.10;89.50
14995;DHT22;7593;49.006;8.372;2023-07-13T08:36:41;25.90;89.90
14995;DHT22;7593;49.006;8.372;2023-07-13T08:39:08;25.60;90.20
14995;DHT22;7593;49.006;8.372;2023-07-13T08:41:35;25.70;90.90
14995;DHT22;7593;49.006;8.372;2023-07-13T08:44:04;25.90;89.80
14995;DHT22;7593;49.006;8.372;2023-07-13T08:46:38;26.00;88.50
14995;DHT22;7593;49.006;8.372;2023-07-13T08:49:12;26.20;88.00
14995;DHT22;7593;49.006;8.372;2023-07-13T08:51:42;26.30;86.30
14995;DHT22;7593;49.006;8.372;2023-07-13T08:54:28;26.60;86.90
14995;DHT22;7593;49.006;8.372;2023-07-13T08:56:57;27.30;86.00
14995;DHT22;7593;49.006;8.372;2023-07-13T08:59:28;28.00;84.40
14995;DHT22;7593;49.006;8.372;2023-07-13T09:02:23;27.90;82.90
14995;DHT22;7593;49.006;8.372;2023-07-13T09:04:55;28.10;82.00
14995;DHT22;7593;49.006;8.372;2023-07-13T09:07:51;28.10;81.30
14995;DHT22;7593;49.006;8.372;2023-07-13T09:10:28;28.10;81.00
14995;DHT22;7593;49.006;8.372;2023-07-13T09:13:07;28.10;78.10
14995;DHT22;7593;49.006;8.372;2023-07-13T09:15:41;27.70;77.50
14995;DHT22;7593;49.006;8.372;2023-07-13T09:18:16;27.70;78.50
14995;DHT22;7593;49.006;8.372;2023-07-13T09:20:48;27.60;77.50
14995;DHT22;7593;49.006;8.372;2023-07-13T09:23:17;27.60;77.70
14995;DHT22;7593;49.006;8.372;2023-07-13T09:25:48;27.70;76.20
14995;DHT22;7593;49.006;8.372;2023-07-13T09:28:19;27.10;77.80
14995;DHT22;7593;49.006;8.372;2023-07-13T09:30:52;27.10;78.70
14995;DHT22;7593;49.006;8.372;2023-07-13T09:33:22;27.60;79.00
14995;DHT22;7593;49.006;8.372;2023-07-13T09:35:49;27.90;76.90
14995;DHT22;7593;49.006;8.372;2023-07-13T09:38:17;28.00;76.50
14995;DHT22;7593;49.006;8.372;2023-07-13T09:40:53;28.30;77.60
14995;DHT22;7593;49.006;8.372;2023-07-13T09:43:24;28.90;76.40
14995;DHT22;7593;49.006;8.372;2023-07-13T09:45:52;28.90;74.60
14995;DHT22;7593;49.006;8.372;2023-07-13T09:48:19;28.50;74.70
14995;DHT22;7593;49.006;8.372;2023-07-13T09:50:47;28.00;73.90
14995;DHT22;7593;49.006;8.372;2023-07-13T09:53:16;27.80;75.70
14995;DHT22;7593;49.006;8.372;2023-07-13T09:55:45;28.00;75.30
14995;DHT22;7593;49.006;8.372;2023-07-13T09:58:14;27.90;74.40
14995;DHT22;7593;49.006;8.372;2023-07-13T10:00:42;27.90;75.00
14995;DHT22;7593;49.006;8.372;2023-07-13T10:03:17;28.10;74.60
14995;DHT22;7593;49.006;8.372;2023-07-13T10:05:49;28.20;74.20
14995;DHT22;7593;49.006;8.372;2023-07-13T10:08:18;28.50;75.00
14995;DHT22;7593;49.006;8.372;2023-07-13T10:10:46;29.00;74.70
14995;DHT22;7593;49.006;8.372;2023-07-13T10:13:34;29.50;74.30
14995;DHT22;7593;49.006;8.372;2023-07-13T10:16:03;29.90;72.90
14995;DHT22;7593;49.006;8.372;2023-07-13T10:18:37;29.80;72.00
14995;DHT22;7593;49.006;8.372;2023-07-13T10:21:13;29.20;72.90
14995;DHT22;7593;49.006;8.372;2023-07-13T10:23:41;28.90;74.00
14995;DHT22;7593;49.006;8.372;2023-07-13T10:26:15;28.40;75.00
14995;DHT22;7593;49.006;8.372;2023-07-13T10:28:45;28.40;76.20
14995;DHT22;7593;49.006;8.372;2023-07-13T10:31:15;28.80;77.20
14995;DHT22;7593;49.006;8.372;2023-07-13T10:33:43;29.00;74.70
14995;DHT22;7593;49.006;8.372;2023-07-13T10:36:19;28.90;74.90
14995;DHT22;7593;49.006;8.372;2023-07-13T10:38:49;29.20;73.20
14995;DHT22;7593;49.006;8.372;2023-07-13T10:41:19;28.90;72.30
14995;DHT22;7593;49.006;8.372;2023-07-13T10:43:49;28.70;73.50
14995;DHT22;7593;49.006;8.372;2023-07-13T10:46:19;28.80;73.40
14995;DHT22;7593;49.006;8.372;2023-07-13T10:48:49;29.00;74.60
14995;DHT22;7593;49.006;8.372;2023-07-13T10:51:18;29.30;73.80
14995;DHT22;7593;49.006;8.372;2023-07-13T10:53:47;29.20;73.40
14995;DHT22;7593;49.006;8.372;2023-07-13T10:56:23;28.90;73.60
14995;DHT22;7593;49.006;8.372;2023-07-13T10:59:02;28.60;74.40
14995;DHT22;7593;49.006;8.372;2023-07-13T11:01:40;28.40;74.70
14995;DHT22;7593;49.006;8.372;2023-07-13T11:04:12;28.10;75.50
14995;DHT22;7593;49.006;8.372;2023-07-13T11:06:42;28.40;75.30
14995;DHT22;7593;49.006;8.372;2023-07-13T11:09:31;28.80;75.60
14995;DHT22;7593;49.006;8.372;2023-07-13T11:11:59;29.40;74.90
14995;DHT22;7593;49.006;8.372;2023-07-13T11:14:30;29.80;73.10
14995;DHT22;7593;49.006;8.372;2023-07-13T11:16:57;30.50;71.10
14995;DHT22;7593;49.006;8.372;2023-07-13T11:19:40;31.00;69.90
14995;DHT22;7593;49.006;8.372;2023-07-13T11:22:15;31.40;69.10
14995;DHT22;7593;49.006;8.372;2023-07-13T11:24:56;30.60;69.20
14995;DHT22;7593;49.006;8.372;2023-07-13T11:27:42;30.00;70.50
14995;DHT22;7593;49.006;8.372;2023-07-13T11:30:22;29.50;71.40
14995;DHT22;7593;49.006;8.372;2023-07-13T11:32:51;29.10;72.50
14995;DHT22;7593;49.006;8.372;2023-07-13T11:35:28;29.00;71.20
14995;DHT22;7593;49.006;8.372;2023-07-13T11:37:57;29.10;71.50
14995;DHT22;7593;49.006;8.372;2023-07-13T11:40:25;29.10;71.60
14995;DHT22;7593;49.006;8.372;2023-07-13T11:42:59;29.10;71.20
14995;DHT22;7593;49.006;8.372;2023-07-13T11:45:26;29.40;69.30
14995;DHT22;7593;49.006;8.372;2023-07-13T11:47:53;29.40;68.60
14995;DHT22;7593;49.006;8.372;2023-07-13T11:50:23;29.40;70.00
14995;DHT22;7593;49.006;8.372;2023-07-13T11:52:52;29.50;71.10
14995;DHT22;7593;49.006;8.372;2023-07-13T11:55:22;29.40;70.90
14995;DHT22;7593;49.006;8.372;2023-07-13T11:57:54;29.20;70.70
14995;DHT22;7593;49.006;8.372;2023-07-13T12:00:29;29.10;70.90
14995;DHT22;7593;49.006;8.372;2023-07-13T12:02:59;29.10;71.70
14995;DHT22;7593;49.006;8.372;2023-07-13T12:05:28;29.60;71.20
14995;DHT22;7593;49.006;8.372;2023-07-13T12:07:57;30.00;68.80
14995;DHT22;7593;49.006;8.372;2023-07-13T12:10:27;30.70;67.70
14995;DHT22;7593;49.006;8.372;2023-07-13T12:12:56;31.30;64.30
14995;DHT22;7593;49.006;8.372;2023-07-13T12:15:32;31.50;64.90
14995;DHT22;7593;49.006;8.372;2023-07-13T12:18:11;31.80;64.20
14995;DHT22;7593;49.006;8.372;2023-07-13T12:20:40;31.50;62.20
14995;DHT22;7593;49.006;8.372;2023-07-13T12:23:19;31.60;61.70
14995;DHT22;7593;49.006;8.372;2023-07-13T12:25:49;31.70;61.60
14995;DHT22;7593;49.006;8.372;2023-07-13T12:28:23;31.50;61.70
14995;DHT22;7593;49.006;8.372;2023-07-13T12:30:58;31.10;60.30
14995;DHT22;7593;49.006;8.372;2023-07-13T12:33:28;31.10;60.30
14995;DHT22;7593;49.006;8.372;2023-07-13T12:35:55;31.20;61.10
14995;DHT22;7593;49.006;8.372;2023-07-13T12:38:24;31.30;60.30
14995;DHT22;7593;49.006;8.372;2023-07-13T12:40:53;31.50;59.60
14995;DHT22;7593;49.006;8.372;2023-07-13T12:43:20;31.40;59.70
14995;DHT22;7593;49.006;8.372;2023-07-13T12:45:59;31.90;59.40
14995;DHT22;7593;49.006;8.372;2023-07-13T12:48:27;32.20;59.00
14995;DHT22;7593;49.006;8.372;2023-07-13T12:51:01;33.10;59.00
14995;DHT22;7593;49.006;8.372;2023-07-13T12:53:29;33.80;57.70
14995;DHT22;7593;49.006;8.372;2023-07-13T12:56:02;34.60;57.20
14995;DHT22;7593;49.006;8.372;2023-07-13T12:58:37;35.10;56.40
14995;DHT22;7593;49.006;8.372;2023-07-13T13:01:05;34.60;55.40
14995;DHT22;7593;49.006;8.372;2023-07-13T13:03:34;34.80;55.60
14995;DHT22;7593;49.006;8.372;2023-07-13T13:06:03;35.30;55.10
14995;DHT22;7593;49.006;8.372;2023-07-13T13:08:32;35.50;54.00
14995;DHT22;7593;49.006;8.372;2023-07-13T13:11:00;36.00;53.30
14995;DHT22;7593;49.006;8.372;2023-07-13T13:13:27;36.10;52.50
14995;DHT22;7593;49.006;8.372;2023-07-13T13:16:01;35.40;52.90
14995;DHT22;7593;49.006;8.372;2023-07-13T13:18:38;34.40;54.10
14995;DHT22;7593;49.006;8.372;2023-07-13T13:21:08;34.10;55.00
14995;DHT22;7593;49.006;8.372;2023-07-13T13:23:38;34.70;55.30
14995;DHT22;7593;49.006;8.372;2023-07-13T13:26:10;35.30;53.00
14995;DHT22;7593;49.006;8.372;2023-07-13T13:28:41;35.20;52.30
14995;DHT22;7593;49.006;8.372;2023-07-13T13:31:22;34.10;52.60
14995;DHT22;7593;49.006;8.372;2023-07-13T13:33:49;33.30;53.60
14995;DHT22;7593;49.006;8.372;2023-07-13T13:36:21;33.40;54.30
14995;DHT22;7593;49.006;8.372;2023-07-13T13:38:53;33.90;53.60
14995;DHT22;7593;49.006;8.372;2023-07-13T13:41:23;34.10;53.40
14995;DHT22;7593;49.006;8.372;2023-07-13T13:43:54;34.80;52.90
14995;DHT22;7593;49.006;8.372;2023-07-13T13:46:25;35.60;51.80
14995;DHT22;7593;49.006;8.372;2023-07-13T13:48:56;36.50;51.30
14995;DHT22;7593;49.006;8.372;2023-07-13T13:51:27;37.00;50.50
14995;DHT22;7593;49.006;8.372;2023-07-13T13:53:54;37.40;50.20
14995;DHT22;7593;49.006;8.372;2023-07-13T13:56:25;37.70;49.40
14995;DHT22;7593;49.006;8.372;2023-07-13T13:58:52;37.90;49.10
14995;DHT22;7593;49.006;8.372;2023-07-13T14:01:28;37.70;48.40
14995;DHT22;7593;49.006;8.372;2023-07-13T14:04:05;37.10;48.80
14995;DHT22;7593;49.006;8.372;2023-07-13T14:06:38;37.40;49.10
14995;DHT22;7593;49.006;8.372;2023-07-13T14:09:16;37.50;48.70
14995;DHT22;7593;49.006;8.372;2023-07-13T14:11:45;37.30;48.60
14995;DHT22;7593;49.006;8.372;2023-07-13T14:14:23;36.90;48.80
14995;DHT22;7593;49.006;8.372;2023-07-13T14:16:54;36.50;48.50
14995;DHT22;7593;49.006;8.372;2023-07-13T14:19:23;35.40;48.40
14995;DHT22;7593;49.006;8.372;2023-07-13T14:22:01;34.10;49.80
14995;DHT22;7593;49.006;8.372;2023-07-13T14:24:27;33.20;51.20
14995;DHT22;7593;49.006;8.372;2023-07-13T14:27:02;33.30;52.50
14995;DHT22;7593;49.006;8.372;2023-07-13T14:29:31;33.30;52.70
14995;DHT22;7593;49.006;8.372;2023-07-13T14:32:01;33.70;52.90
14995;DHT22;7593;49.006;8.372;2023-07-13T14:34:30;34.10;52.60
14995;DHT22;7593;49.006;8.372;2023-07-13T14:37:08;34.70;52.00
14995;DHT22;7593;49.006;8.372;2023-07-13T14:39:45;34.90;51.50
14995;DHT22;7593;49.006;8.372;2023-07-13T14:42:14;34.60;51.70
14995;DHT22;7593;49.006;8.372;2023-07-13T14:44:44;34.00;52.50
14995;DHT22;7593;49.006;8.372;2023-07-13T14:47:15;33.60;53.40
14995;DHT22;7593;49.006;8.372;2023-07-13T14:49:51;33.60;53.30
14995;DHT22;7593;49.006;8.372;2023-07-13T14:52:21;33.90;53.40
14995;DHT22;7593;49.006;8.372;2023-07-13T14:54:51;34.10;53.00
14995;DHT22;7593;49.006;8.372;2023-07-13T14:57:33;34.20;52.90
14995;DHT22;7593;49.006;8.372;2023-07-13T15:00:02;33.50;52.80
14995;DHT22;7593;49.006;8.372;2023-07-13T15:02:39;32.90;53.60
14995;DHT22;7593;49.006;8.372;2023-07-13T15:05:20;32.50;54.00
14995;DHT22;7593;49.006;8.372;2023-07-13T15:07:50;32.10;54.30
14995;DHT22;7593;49.006;8.372;2023-07-13T15:10:21;31.20;54.60
14995;DHT22;7593;49.006;8.372;2023-07-13T15:12:56;31.10;55.40
14995;DHT22;7593;49.006;8.372;2023-07-13T15:15:38;31.50;55.90
14995;DHT22;7593;49.006;8.372;2023-07-13T15:18:12;31.90;55.50
14995;DHT22;7593;49.006;8.372;2023-07-13T15:20:46;32.40;54.80
14995;DHT22;7593;49.006;8.372;2023-07-13T15:23:19;32.40;55.00
14995;DHT22;7593;49.006;8.372;2023-07-13T15:25:51;32.40;54.80
14995;DHT22;7593;49.006;8.372;2023-07-13T15:28:28;32.70;54.70
14995;DHT22;7593;49.006;8.372;2023-07-13T15:30:59;32.40;54.50
14995;DHT22;7593;49.006;8.372;2023-07-13T15:33:29;32.50;55.00
14995;DHT22;7593;49.006;8.372;2023-07-13T15:36:05;32.80;55.00
14995;DHT22;7593;49.006;8.372;2023-07-13T15:38:35;33.20;54.60
14995;DHT22;7593;49.006;8.372;2023-07-13T15:41:31;33.70;53.50
14995;DHT22;7593;49.006;8.372;2023-07-13T15:44:12;34.10;53.30
14995;DHT22;7593;49.006;8.372;2023-07-13T15:46:45;34.40;53.10
14995;DHT22;7593;49.006;8.372;2023-07-13T15:49:14;34.40;52.50
14995;DHT22;7593;49.006;8.372;2023-07-13T15:51:51;34.00;52.70
14995;DHT22;7593;49.006;8.372;2023-07-13T15:54:23;34.00;52.90
14995;DHT22;7593;49.006;8.372;2023-07-13T15:56:52;34.30;52.70
14995;DHT22;7593;49.006;8.372;2023-07-13T15:59:21;34.90;52.00